Terminal Aerodrome Forecast
Issued by NWS

Home | Current Version | Previous Version | Text Only | Print | Product List | Glossary On
Versions: 1 2 3 4 5 6 7 8 9 10 11 12 13 14 15 16
000
FTAK31 PAJN 292322
TAFASI
TAF
PASI 292322Z 3000/3024 19009KT P6SM -SHRA SCT010 BKN025 OVC040
      TEMPO 3000/3003 4SM -SHRA BKN015 OVC025
     FM300600 25004KT P6SM BKN015 OVC025
     FM301000 VRB03KT 4SM -DZ BR BKN006 OVC012
     FM301600 28005KT P6SM SCT006 BKN015 OVC025
     FM302100 28008KT P6SM SCT015 OVC025=

USA.gov is the U.S. government's official web portal to all federal, state and local government web resources and services.